Time;durP1;ratioP1;P1;durP2;ratioP2;P2;SDS_P1;SDS_P2;PMS_P1;PMS_P2;Temp;Humidity;BMP_temperature;BMP_pressure;BME280_temperature;BME280_humidity;BME280_pressure;Samples;Min_cycle;Max_cycle;Signal;HPM_P1;HPM_P2
2021/03/19 00:00:24;;;;;;;10.68;4.05;;;1.80;94.40;;;;;;4979758;28;20042;-82
2021/03/19 00:02:52;;;;;;;16.60;5.10;;;1.70;94.30;;;;;;4978596;28;20038;-83
2021/03/19 00:05:19;;;;;;;14.85;4.45;;;1.60;94.40;;;;;;4982110;28;20042;-83
2021/03/19 00:07:49;;;;;;;12.30;4.75;;;1.60;94.40;;;;;;4972005;28;20042;-83
2021/03/19 00:10:18;;;;;;;14.10;4.78;;;1.60;94.40;;;;;;4984305;28;20039;-83
2021/03/19 00:12:48;;;;;;;15.50;4.43;;;1.60;94.40;;;;;;4971985;28;20114;-83
2021/03/19 00:15:16;;;;;;;18.05;5.70;;;1.50;94.40;;;;;;4982545;28;20027;-83
2021/03/19 00:17:42;;;;;;;17.33;5.20;;;1.50;94.40;;;;;;4998210;28;20363;-83
2021/03/19 00:20:10;;;;;;;15.18;4.68;;;1.50;94.80;;;;;;4995732;28;20053;-83
2021/03/19 00:22:37;;;;;;;17.42;4.72;;;1.50;94.50;;;;;;4990493;28;20108;-83
2021/03/19 00:25:05;;;;;;;17.40;5.80;;;1.50;94.50;;;;;;4994762;28;20130;-83
2021/03/19 00:27:31;;;;;;;16.90;4.45;;;1.40;94.50;;;;;;4991440;28;20042;-83
2021/03/19 00:29:57;;;;;;;20.75;5.25;;;1.40;94.50;;;;;;4972045;28;20739;-83
2021/03/19 00:32:23;;;;;;;19.65;5.07;;;1.40;94.50;;;;;;4980153;28;20042;-83
2021/03/19 00:34:48;;;;;;;10.55;4.68;;;1.40;94.50;;;;;;4962308;28;20135;-83
2021/03/19 00:37:14;;;;;;;14.82;4.93;;;1.30;94.50;;;;;;4980808;28;20030;-83
2021/03/19 00:39:40;;;;;;;9.43;4.40;;;1.30;94.60;;;;;;4953735;28;20041;-83
2021/03/19 00:42:06;;;;;;;11.43;4.32;;;1.30;94.60;;;;;;4983044;28;20156;-83
2021/03/19 00:44:33;;;;;;;13.45;5.32;;;1.30;94.60;;;;;;5001064;28;20085;-83
2021/03/19 00:46:59;;;;;;;14.27;4.57;;;1.30;94.70;;;;;;4977687;28;20038;-83
2021/03/19 00:49:25;;;;;;;13.02;5.07;;;1.30;95.00;;;;;;4980722;28;20030;-83
2021/03/19 00:51:50;;;;;;;14.85;5.10;;;1.30;94.70;;;;;;4957173;28;20042;-83
2021/03/19 00:54:16;;;;;;;18.10;5.50;;;1.20;94.70;;;;;;4965858;28;20329;-83
2021/03/19 00:56:42;;;;;;;17.60;5.68;;;1.20;94.70;;;;;;4962310;28;20425;-83
2021/03/19 00:59:08;;;;;;;17.63;5.10;;;1.20;94.70;;;;;;4964120;28;20031;-83
2021/03/19 01:01:37;;;;;;;20.88;5.60;;;1.20;94.70;;;;;;4987156;28;20042;-83
2021/03/19 01:04:04;;;;;;;16.25;5.43;;;1.20;94.80;;;;;;4991626;28;20094;-83
2021/03/19 01:06:30;;;;;;;14.05;5.18;;;1.20;94.80;;;;;;4992358;28;20409;-83
2021/03/19 01:08:58;;;;;;;24.23;6.15;;;1.20;94.80;;;;;;4994665;28;20042;-83
2021/03/19 01:11:27;;;;;;;17.15;5.28;;;1.10;94.80;;;;;;4984868;28;20042;-83
2021/03/19 01:13:54;;;;;;;20.17;5.60;;;1.10;94.90;;;;;;4966271;28;20047;-83
2021/03/19 01:16:20;;;;;;;16.00;5.55;;;1.10;94.90;;;;;;4967341;28;20053;-83
2021/03/19 01:18:46;;;;;;;19.88;5.70;;;1.10;94.90;;;;;;4987289;28;20042;-83
2021/03/19 01:21:12;;;;;;;17.20;5.45;;;1.00;94.90;;;;;;4987617;28;20094;-83
2021/03/19 01:23:39;;;;;;;18.17;6.03;;;1.00;94.90;;;;;;4990978;28;20034;-83
2021/03/19 01:26:04;;;;;;;14.55;5.85;;;1.00;94.90;;;;;;4991869;28;20092;-83
2021/03/19 01:28:30;;;;;;;21.70;5.78;;;1.00;94.90;;;;;;4988695;28;20039;-83
2021/03/19 01:30:56;;;;;;;16.48;4.85;;;1.00;95.00;;;;;;4992716;28;20042;-83
2021/03/19 01:33:23;;;;;;;16.67;5.80;;;0.90;95.00;;;;;;4985717;28;20129;-83
2021/03/19 01:35:48;;;;;;;21.95;5.43;;;0.90;95.00;;;;;;4985771;28;20026;-83
2021/03/19 01:38:14;;;;;;;16.60;5.53;;;0.90;95.00;;;;;;4945671;28;20050;-83
2021/03/19 01:40:45;;;;;;;16.05;5.45;;;0.90;95.10;;;;;;4971980;28;20078;-83
2021/03/19 01:43:13;;;;;;;20.55;6.20;;;0.80;95.10;;;;;;4968600;28;20109;-83
2021/03/19 01:46:19;;;;;;;19.40;5.50;;;0.80;95.10;;;;;;4991790;28;20405;-83
2021/03/19 01:49:25;;;;;;;16.00;5.82;;;0.80;95.10;;;;;;4976599;28;20093;-83
2021/03/19 01:52:28;;;;;;;18.80;5.65;;;0.80;95.10;;;;;;5004319;28;20112;-83
2021/03/19 01:55:32;;;;;;;22.40;6.18;;;0.70;95.10;;;;;;4989369;28;20030;-84
2021/03/19 01:58:35;;;;;;;17.45;6.18;;;0.70;95.10;;;;;;4989140;28;20041;-83
2021/03/19 02:01:39;;;;;;;26.27;7.32;;;0.60;95.10;;;;;;4985385;28;20034;-83
2021/03/19 02:04:23;;;;;;;;;;;0.60;95.00;;;;;;4954585;28;20073;-83
2021/03/19 02:07:27;;;;;;;18.75;5.82;;;0.50;95.00;;;;;;4988553;28;19956;-83
2021/03/19 02:10:30;;;;;;;19.75;5.50;;;0.50;95.10;;;;;;4998953;28;20034;-83
2021/03/19 02:13:34;;;;;;;14.90;5.45;;;0.40;95.10;;;;;;4982435;28;20623;-84
2021/03/19 02:16:37;;;;;;;17.83;5.45;;;0.40;95.10;;;;;;5001094;28;20034;-84
2021/03/19 02:19:41;;;;;;;17.58;5.85;;;0.40;95.10;;;;;;4993480;28;20034;-84
2021/03/19 02:22:45;;;;;;;18.35;6.13;;;0.30;95.10;;;;;;4989270;28;20034;-83
2021/03/19 02:25:49;;;;;;;13.63;5.35;;;0.30;95.10;;;;;;4999177;28;20050;-83
2021/03/19 02:28:52;;;;;;;18.60;4.95;;;0.20;95.10;;;;;;4987165;28;20030;-83
2021/03/19 02:31:38;;;;;;;;;;;0.20;95.10;;;;;;4982435;28;20039;-83
2021/03/19 02:34:03;;;;;;;14.23;4.45;;;0.20;95.10;;;;;;4979659;28;19928;-83
2021/03/19 02:36:29;;;;;;;16.98;5.82;;;0.10;95.40;;;;;;4968244;28;20034;-83
2021/03/19 02:38:55;;;;;;;16.10;5.22;;;0.10;95.10;;;;;;4947307;28;20030;-83
2021/03/19 02:41:22;;;;;;;17.40;5.63;;;0.10;95.10;;;;;;4965780;28;20084;-84
2021/03/19 02:43:47;;;;;;;19.50;5.75;;;0.10;95.20;;;;;;4962039;28;20053;-83
2021/03/19 02:46:14;;;;;;;24.23;8.95;;;0.00;95.20;;;;;;4979914;28;20398;-84
2021/03/19 02:48:40;;;;;;;22.02;7.65;;;0.00;95.20;;;;;;4985575;28;20042;-83
2021/03/19 02:51:06;;;;;;;24.10;6.97;;;0.10;95.30;;;;;;4973047;28;20034;-83
2021/03/19 02:53:34;;;;;;;18.65;6.40;;;0.00;95.40;;;;;;4988651;28;20117;-83
2021/03/19 02:56:04;;;;;;;18.77;7.55;;;0.00;95.40;;;;;;4991611;28;20034;-84
2021/03/19 02:58:30;;;;;;;18.63;7.70;;;0.00;95.30;;;;;;4985835;28;20047;-83
2021/03/19 03:00:56;;;;;;;24.25;8.80;;;-0.10;95.30;;;;;;4977643;28;20108;-83
2021/03/19 03:03:22;;;;;;;19.13;8.07;;;0.00;95.40;;;;;;4966794;28;20508;-83
2021/03/19 03:05:47;;;;;;;18.13;8.63;;;0.00;95.40;;;;;;4963788;28;20062;-83
2021/03/19 03:08:20;;;;;;;32.13;10.57;;;0.00;95.50;;;;;;4963901;28;20042;-83
2021/03/19 03:10:47;;;;;;;22.60;8.88;;;0.00;95.50;;;;;;4976904;28;20102;-84
2021/03/19 03:13:14;;;;;;;26.05;8.80;;;0.00;95.50;;;;;;4999067;28;20050;-83
2021/03/19 03:15:41;;;;;;;21.80;9.38;;;0.00;95.50;;;;;;4988356;28;20341;-83
2021/03/19 03:18:08;;;;;;;19.40;7.55;;;0.00;95.50;;;;;;4973697;28;20062;-84
2021/03/19 03:20:42;;;;;;;27.88;9.63;;;0.00;95.50;;;;;;4976401;28;20120;-83
2021/03/19 03:23:08;;;;;;;24.75;9.77;;;0.00;95.50;;;;;;4968935;28;20050;-83
2021/03/19 03:25:36;;;;;;;24.10;10.15;;;0.00;95.50;;;;;;4958148;28;20054;-83
2021/03/19 03:28:04;;;;;;;17.15;7.70;;;-0.10;95.50;;;;;;4942746;28;20055;-83
2021/03/19 03:30:41;;;;;;;29.40;9.77;;;-0.10;95.50;;;;;;4982636;28;20521;-83
2021/03/19 03:33:09;;;;;;;17.25;8.98;;;-0.10;95.50;;;;;;4984475;28;20101;-83
2021/03/19 03:35:36;;;;;;;24.95;11.07;;;-0.10;95.50;;;;;;4985300;28;20055;-83
2021/03/19 03:38:05;;;;;;;21.73;8.85;;;-0.10;95.60;;;;;;4971744;28;20537;-83
2021/03/19 03:40:49;;;;;;;29.88;13.02;;;-0.20;95.60;;;;;;4986360;28;20077;-83
2021/03/19 03:43:17;;;;;;;37.60;15.93;;;-0.20;95.60;;;;;;4972537;28;20050;-83
2021/03/19 03:45:44;;;;;;;34.72;12.82;;;-0.20;95.70;;;;;;4979595;28;20467;-83
2021/03/19 03:48:15;;;;;;;33.75;12.45;;;0.00;95.90;;;;;;4955939;28;20050;-84
2021/03/19 03:50:42;;;;;;;38.75;14.18;;;0.10;95.90;;;;;;4976561;28;20101;-83
2021/03/19 03:53:10;;;;;;;32.60;12.75;;;0.10;95.80;;;;;;4978878;28;20046;-84
2021/03/19 03:55:38;;;;;;;29.17;12.20;;;0.10;95.80;;;;;;4984242;28;20066;-84
2021/03/19 03:58:06;;;;;;;37.17;13.35;;;0.10;95.70;;;;;;4985506;28;20069;-84
2021/03/19 04:00:32;;;;;;;29.58;11.82;;;0.10;95.70;;;;;;4974108;28;20579;-83
2021/03/19 04:03:03;;;;;;;28.63;12.30;;;0.00;95.70;;;;;;4957192;28;20054;-82
2021/03/19 04:05:39;;;;;;;40.20;12.27;;;0.00;95.70;;;;;;4971832;28;20046;-84
2021/03/19 04:08:08;;;;;;;24.55;10.98;;;0.10;95.80;;;;;;4973708;28;20109;-84
2021/03/19 04:10:35;;;;;;;29.83;12.02;;;0.10;95.80;;;;;;4970447;28;20058;-84
2021/03/19 04:13:02;;;;;;;38.00;13.45;;;0.10;95.70;;;;;;4949589;28;20054;-83
2021/03/19 04:15:29;;;;;;;24.60;11.13;;;0.00;95.70;;;;;;4965307;28;20740;-84
2021/03/19 04:17:57;;;;;;;26.65;10.27;;;0.10;96.00;;;;;;4955131;28;20050;-84
2021/03/19 04:20:25;;;;;;;29.08;10.43;;;0.00;95.70;;;;;;4970021;28;20046;-84
2021/03/19 04:22:51;;;;;;;22.15;9.38;;;-0.10;95.60;;;;;;4996594;28;20050;-84
2021/03/19 04:25:19;;;;;;;26.33;10.80;;;-0.10;95.70;;;;;;4989744;28;20432;-83
2021/03/19 04:27:54;;;;;;;20.25;10.68;;;-0.10;95.70;;;;;;4988426;28;20050;-84
2021/03/19 04:30:33;;;;;;;24.23;9.80;;;-0.10;95.70;;;;;;4988631;28;20069;-84
2021/03/19 04:33:00;;;;;;;32.78;13.23;;;-0.20;95.70;;;;;;4994226;28;20073;-84
2021/03/19 04:35:28;;;;;;;22.42;10.07;;;-0.20;95.70;;;;;;4976154;28;20529;-84
2021/03/19 04:37:58;;;;;;;24.50;10.55;;;-0.20;95.70;;;;;;4977069;28;20108;-84
2021/03/19 04:40:26;;;;;;;28.48;10.68;;;-0.20;95.80;;;;;;4988793;28;20459;-84
2021/03/19 04:42:54;;;;;;;32.65;12.65;;;-0.20;95.80;;;;;;4962622;28;20450;-84
2021/03/19 04:45:22;;;;;;;30.25;13.00;;;-0.20;96.10;;;;;;4959809;28;20058;-84
2021/03/19 04:47:49;;;;;;;21.90;10.45;;;-0.20;95.80;;;;;;4948187;28;20050;-84
2021/03/19 04:50:16;;;;;;;35.25;12.15;;;-0.20;95.80;;;;;;4988184;28;20564;-84
2021/03/19 04:52:42;;;;;;;24.63;9.65;;;-0.20;95.80;;;;;;4987123;28;20046;-85
2021/03/19 04:55:09;;;;;;;39.17;13.30;;;-0.20;95.80;;;;;;4968725;28;20050;-85
2021/03/19 04:57:36;;;;;;;31.55;10.38;;;-0.10;95.90;;;;;;4985552;28;20059;-85
2021/03/19 05:00:07;;;;;;;29.40;10.50;;;-0.20;95.80;;;;;;4973485;28;20054;-85
2021/03/19 05:02:37;;;;;;;30.00;11.13;;;-0.20;95.80;;;;;;4988177;28;20498;-84
2021/03/19 05:05:05;;;;;;;26.88;10.75;;;-0.10;95.90;;;;;;4988677;28;20042;-84
2021/03/19 05:07:32;;;;;;;24.63;9.70;;;-0.20;95.80;;;;;;4986000;28;20047;-85
2021/03/19 05:09:58;;;;;;;31.42;11.73;;;-0.20;95.80;;;;;;4988240;28;20489;-84
2021/03/19 05:12:24;;;;;;;32.47;9.90;;;-0.20;95.80;;;;;;4943516;28;20054;-85
2021/03/19 05:14:51;;;;;;;27.10;10.45;;;-0.20;95.90;;;;;;4970909;28;20488;-84
2021/03/19 05:17:17;;;;;;;27.40;9.15;;;-0.20;95.90;;;;;;4964157;28;20430;-85
2021/03/19 05:19:44;;;;;;;28.77;9.13;;;-0.20;95.90;;;;;;4979835;28;20750;-84
2021/03/19 05:22:10;;;;;;;26.75;9.02;;;-0.30;95.90;;;;;;4985604;28;20426;-85
2021/03/19 05:24:36;;;;;;;25.13;8.77;;;-0.30;95.80;;;;;;4958893;28;20049;-85
2021/03/19 05:27:03;;;;;;;36.05;10.15;;;-0.30;95.90;;;;;;4999252;28;20046;-85
2021/03/19 05:29:29;;;;;;;21.45;8.93;;;-0.40;95.90;;;;;;4955636;28;20050;-84
2021/03/19 05:31:56;;;;;;;20.30;8.07;;;-0.40;95.90;;;;;;4958597;28;20081;-85
2021/03/19 05:34:22;;;;;;;26.70;9.52;;;-0.40;95.90;;;;;;4971882;28;20138;-85
2021/03/19 05:36:49;;;;;;;23.75;10.05;;;-0.40;95.90;;;;;;4982342;28;20051;-86
2021/03/19 05:39:15;;;;;;;24.23;8.57;;;-0.40;95.90;;;;;;4960348;28;20046;-85
2021/03/19 05:41:43;;;;;;;30.67;10.48;;;-0.40;96.00;;;;;;4980787;28;20050;-85
2021/03/19 05:44:14;;;;;;;25.30;9.13;;;-0.40;96.00;;;;;;4971434;28;20054;-85
2021/03/19 05:46:44;;;;;;;21.95;8.80;;;-0.40;96.00;;;;;;4985728;28;20050;-85
2021/03/19 05:49:10;;;;;;;18.70;7.72;;;-0.40;96.00;;;;;;4972356;28;20178;-85
2021/03/19 05:51:38;;;;;;;25.38;8.10;;;-0.40;96.00;;;;;;4977736;28;20046;-84
2021/03/19 05:54:15;;;;;;;24.92;7.68;;;-0.40;96.10;;;;;;4983320;28;20050;-84
2021/03/19 05:56:42;;;;;;;26.42;7.40;;;-0.40;96.00;;;;;;4984697;28;20054;-85
2021/03/19 05:59:09;;;;;;;20.55;8.45;;;-0.40;96.00;;;;;;4976508;28;20058;-85
2021/03/19 06:01:37;;;;;;;27.08;8.65;;;-0.40;96.00;;;;;;4959159;28;20058;-84
2021/03/19 06:04:04;;;;;;;32.20;8.77;;;-0.40;96.00;;;;;;4956892;28;20046;-85
2021/03/19 06:06:46;;;;;;;29.20;9.02;;;-0.40;96.00;;;;;;4954084;28;20104;-85
2021/03/19 06:09:26;;;;;;;23.25;8.27;;;-0.40;96.00;;;;;;4977271;28;20046;-85
2021/03/19 06:11:57;;;;;;;21.08;7.93;;;-0.40;96.10;;;;;;4983459;28;20050;-85
2021/03/19 06:14:25;;;;;;;21.15;7.55;;;-0.40;96.10;;;;;;4990523;28;20054;-85
2021/03/19 06:16:58;;;;;;;20.88;9.57;;;-0.40;96.10;;;;;;4963280;28;20054;-85
2021/03/19 06:19:45;;;;;;;32.42;10.00;;;-0.30;96.10;;;;;;4974455;28;20050;-85
2021/03/19 06:22:23;;;;;;;33.75;10.18;;;-0.40;96.20;;;;;;4976120;28;20568;-84
2021/03/19 06:25:10;;;;;;;30.70;9.85;;;-0.30;96.30;;;;;;4980950;28;20054;-86
2021/03/19 06:27:59;;;;;;;28.38;10.38;;;-0.20;96.20;;;;;;4979500;28;20046;-85
2021/03/19 06:30:45;;;;;;;35.67;11.43;;;-0.20;96.20;;;;;;4963871;28;20088;-85
2021/03/19 06:33:14;;;;;;;31.17;10.18;;;-0.10;96.30;;;;;;4949808;28;20496;-85
2021/03/19 06:35:46;;;;;;;34.60;11.25;;;0.00;96.30;;;;;;4974033;28;20030;-85
2021/03/19 06:38:36;;;;;;;37.78;11.30;;;0.00;96.60;;;;;;4957212;28;20065;-85
2021/03/19 06:41:35;;;;;;;31.92;12.45;;;0.10;96.30;;;;;;4963346;28;20050;-85
2021/03/19 06:44:24;;;;;;;38.78;12.25;;;0.20;96.40;;;;;;4954646;28;20390;-85
2021/03/19 06:47:42;;;;;;;34.95;13.68;;;0.30;96.40;;;;;;4951030;28;20042;-84
2021/03/19 06:50:28;;;;;;;33.65;12.73;;;0.40;96.40;;;;;;4965180;28;20526;-84
2021/03/19 06:53:29;;;;;;;30.05;12.55;;;0.40;96.40;;;;;;4963583;28;20039;-84
2021/03/19 06:56:21;;;;;;;38.50;11.90;;;0.60;96.50;;;;;;4964532;28;20505;-84
2021/03/19 06:59:20;;;;;;;33.17;10.75;;;0.70;96.50;;;;;;4959352;28;20055;-84
2021/03/19 07:02:36;;;;;;;35.63;12.25;;;0.90;96.40;;;;;;4966016;28;20072;-84
2021/03/19 07:05:50;;;;;;;25.38;11.57;;;1.00;96.40;;;;;;4965238;28;20205;-84
2021/03/19 07:08:54;;;;;;;29.50;12.35;;;1.10;96.30;;;;;;4964871;28;20062;-84
2021/03/19 07:11:52;;;;;;;40.05;11.57;;;1.30;96.40;;;;;;4970237;28;20049;-83
2021/03/19 07:15:13;;;;;;;23.13;10.52;;;1.40;96.20;;;;;;4970606;28;20046;-84
2021/03/19 07:18:02;;;;;;;25.63;10.25;;;1.50;96.20;;;;;;5003139;28;20301;-83
2021/03/19 07:20:37;;;;;;;27.67;10.02;;;1.70;96.10;;;;;;4984441;28;20089;-84
2021/03/19 07:23:40;;;;;;;27.73;10.75;;;1.80;96.00;;;;;;4985018;28;20118;-84
2021/03/19 07:26:31;;;;;;;19.38;9.52;;;1.90;95.90;;;;;;4978275;28;20054;-82
2021/03/19 07:29:26;;;;;;;21.55;8.48;;;2.00;95.90;;;;;;4988236;28;20117;-84
2021/03/19 07:32:05;;;;;;;19.77;7.40;;;2.10;95.80;;;;;;4982968;28;20034;-83
2021/03/19 07:34:51;;;;;;;19.52;8.00;;;2.20;95.70;;;;;;4966893;28;20057;-84
2021/03/19 07:37:22;;;;;;;19.10;7.72;;;2.30;95.60;;;;;;4973229;28;20038;-84
2021/03/19 07:40:14;;;;;;;17.15;7.25;;;2.40;95.50;;;;;;4967434;28;20096;-83
2021/03/19 07:43:14;;;;;;;19.05;7.72;;;2.50;95.40;;;;;;4972616;28;20042;-84
2021/03/19 07:46:23;;;;;;;17.00;7.85;;;2.60;95.30;;;;;;4989819;28;20414;-83
2021/03/19 07:49:39;;;;;;;16.80;7.65;;;2.70;95.20;;;;;;4977561;28;20050;-85
2021/03/19 07:52:40;;;;;;;13.80;7.47;;;2.80;95.20;;;;;;4989258;28;20042;-83
2021/03/19 07:55:32;;;;;;;17.42;7.50;;;2.90;95.00;;;;;;4986131;28;20189;-84
2021/03/19 07:58:35;;;;;;;15.95;7.25;;;3.00;95.00;;;;;;4970058;28;20046;-83
2021/03/19 08:01:39;;;;;;;15.65;7.35;;;3.00;94.90;;;;;;4959164;28;20078;-84
2021/03/19 08:04:56;;;;;;;18.42;7.00;;;3.10;94.80;;;;;;4964380;28;20047;-83
2021/03/19 08:07:46;;;;;;;13.25;6.07;;;3.20;94.70;;;;;;4970557;28;20660;-82
2021/03/19 08:10:40;;;;;;;13.60;6.32;;;3.30;94.50;;;;;;4973015;28;20042;-82
2021/03/19 08:13:51;;;;;;;17.60;5.63;;;3.30;94.50;;;;;;4955053;28;20494;-84
2021/03/19 08:16:49;;;;;;;20.48;6.55;;;3.40;94.40;;;;;;4967416;28;20118;-84
2021/03/19 08:19:50;;;;;;;13.00;5.85;;;3.50;94.30;;;;;;4987882;28;20058;-84
2021/03/19 08:22:53;;;;;;;10.70;5.38;;;3.60;94.30;;;;;;4980490;28;20050;-84
2021/03/19 08:25:45;;;;;;;13.13;5.07;;;3.70;94.20;;;;;;4970926;28;20442;-84
2021/03/19 08:29:04;;;;;;;12.40;4.78;;;3.80;93.70;;;;;;4965648;28;20051;-85
2021/03/19 08:32:13;;;;;;;17.77;5.40;;;3.90;93.40;;;;;;4958722;28;20124;-85
2021/03/19 08:35:37;;;;;;;11.43;5.20;;;4.00;93.20;;;;;;4966995;28;20426;-84
2021/03/19 08:38:55;;;;;;;9.20;4.68;;;4.00;93.10;;;;;;4958520;28;20141;-84
2021/03/19 08:41:50;;;;;;;9.93;4.90;;;4.10;93.20;;;;;;4947150;28;20739;-84
2021/03/19 08:44:38;;;;;;;11.68;4.82;;;4.20;93.00;;;;;;4971309;28;20078;-83
2021/03/19 08:47:29;;;;;;;11.27;4.53;;;4.30;93.10;;;;;;4980483;28;20078;-84
2021/03/19 08:50:26;;;;;;;9.63;4.70;;;4.30;92.70;;;;;;4982826;28;20378;-84
2021/03/19 08:53:15;;;;;;;10.63;4.72;;;4.40;92.50;;;;;;5000595;28;20379;-83
2021/03/19 08:56:03;;;;;;;17.88;3.80;;;4.50;91.80;;;;;;4975146;28;20563;-84
2021/03/19 08:58:53;;;;;;;11.43;4.32;;;4.60;91.90;;;;;;4980310;28;20050;-84
2021/03/19 09:01:50;;;;;;;7.50;3.70;;;4.60;91.70;;;;;;4964145;28;20126;-83
2021/03/19 09:04:50;;;;;;;7.47;3.83;;;4.60;91.60;;;;;;4981449;28;20048;-84
2021/03/19 09:07:37;;;;;;;6.95;3.55;;;4.70;91.20;;;;;;4980234;28;20031;-83
2021/03/19 09:10:23;;;;;;;8.63;3.63;;;4.80;91.40;;;;;;4977505;28;20044;-82
2021/03/19 09:13:16;;;;;;;8.32;3.00;;;4.90;91.20;;;;;;4963698;28;20202;-83
2021/03/19 09:15:47;;;;;;;5.22;2.78;;;4.90;90.50;;;;;;4954943;28;20442;-84
2021/03/19 09:18:46;;;;;;;7.05;2.92;;;5.00;90.10;;;;;;4979431;28;20038;-84
2021/03/19 09:21:37;;;;;;;5.68;2.63;;;5.10;89.30;;;;;;4981347;28;20061;-82
2021/03/19 09:24:24;;;;;;;6.00;2.60;;;5.10;89.50;;;;;;4977777;28;20062;-84
2021/03/19 09:27:31;;;;;;;7.07;2.55;;;5.20;88.40;;;;;;4974591;28;20077;-83
2021/03/19 09:30:23;;;;;;;7.72;2.50;;;5.20;86.80;;;;;;4979954;28;20161;-82
2021/03/19 09:33:48;;;;;;;7.03;2.40;;;5.30;86.80;;;;;;4986717;28;20050;-83
2021/03/19 09:37:07;;;;;;;6.85;2.58;;;5.30;82.40;;;;;;4974724;28;20055;-82
2021/03/19 09:40:08;;;;;;;4.90;2.40;;;5.40;85.10;;;;;;4978361;28;20057;-84
2021/03/19 09:42:44;;;;;;;4.80;2.20;;;5.50;85.10;;;;;;4999739;28;20046;-82
2021/03/19 09:45:10;;;;;;;3.60;2.30;;;5.60;84.40;;;;;;5000537;28;20050;-83
2021/03/19 09:47:48;;;;;;;6.65;2.30;;;5.60;84.50;;;;;;5005478;28;20073;-83
2021/03/19 09:50:33;;;;;;;4.45;2.17;;;5.70;85.00;;;;;;4995766;28;20044;-85
2021/03/19 09:53:07;;;;;;;3.78;2.17;;;5.70;83.60;;;;;;4992423;28;20039;-83
2021/03/19 09:55:56;;;;;;;3.67;2.22;;;5.70;82.90;;;;;;4993341;28;20153;-84
2021/03/19 09:58:46;;;;;;;4.55;2.33;;;5.90;83.10;;;;;;4978017;28;20042;-82
2021/03/19 10:01:30;;;;;;;4.10;2.25;;;5.90;79.70;;;;;;4986641;28;20055;-83
2021/03/19 10:04:07;;;;;;;4.43;2.47;;;6.00;80.00;;;;;;4975473;28;20104;-85
2021/03/19 10:06:53;;;;;;;5.43;2.30;;;6.00;80.20;;;;;;4975340;28;20057;-84
2021/03/19 10:09:21;;;;;;;7.28;2.83;;;6.10;80.20;;;;;;4965750;28;20528;-83
2021/03/19 10:12:14;;;;;;;5.20;2.30;;;6.20;78.90;;;;;;4959421;28;20046;-83
2021/03/19 10:15:17;;;;;;;5.22;2.53;;;6.20;78.80;;;;;;4974460;28;20038;-84
2021/03/19 10:18:05;;;;;;;3.25;2.10;;;6.30;79.60;;;;;;4969737;28;20085;-82
2021/03/19 10:20:55;;;;;;;6.38;2.10;;;6.40;81.10;;;;;;4969993;28;20042;-83
2021/03/19 10:23:55;;;;;;;2.88;1.80;;;6.50;79.20;;;;;;4973916;28;20057;-85
2021/03/19 10:26:55;;;;;;;2.58;1.52;;;6.70;78.10;;;;;;4963528;28;20046;-83
2021/03/19 10:29:39;;;;;;;3.92;1.70;;;6.70;77.00;;;;;;4981785;28;20486;-84
2021/03/19 10:32:23;;;;;;;5.15;1.67;;;6.80;75.50;;;;;;4988455;28;20061;-84
2021/03/19 10:35:09;;;;;;;4.03;1.70;;;6.80;74.90;;;;;;4972605;28;20038;-85
2021/03/19 10:38:03;;;;;;;2.08;1.58;;;6.90;73.80;;;;;;4975867;28;20050;-84
2021/03/19 10:40:57;;;;;;;5.35;1.73;;;7.00;74.90;;;;;;4975116;28;21291;-83
2021/03/19 10:43:29;;;;;;;3.17;1.70;;;7.10;74.30;;;;;;4985141;28;20089;-82
2021/03/19 10:46:02;;;;;;;4.03;1.80;;;7.10;75.10;;;;;;4985643;28;20031;-84
2021/03/19 10:48:44;;;;;;;4.90;1.80;;;7.20;75.10;;;;;;4982700;28;20537;-89
2021/03/19 10:51:32;;;;;;;24.17;3.00;;;7.30;74.80;;;;;;4972401;28;20038;-85
2021/03/19 10:54:07;;;;;;;6.13;1.65;;;7.40;72.40;;;;;;4996493;28;20062;-85
2021/03/19 10:56:33;;;;;;;3.03;1.50;;;7.50;73.10;;;;;;4992148;28;20122;-88
2021/03/19 10:59:28;;;;;;;2.08;1.63;;;7.50;74.40;;;;;;4974765;28;20039;-87
2021/03/19 11:02:07;;;;;;;3.53;1.85;;;7.50;73.00;;;;;;4986575;28;20050;-86
2021/03/19 11:04:37;;;;;;;3.83;1.85;;;7.60;74.70;;;;;;4998805;28;20050;-87
2021/03/19 11:07:27;;;;;;;4.25;2.22;;;7.70;73.30;;;;;;4965843;28;20409;-87
2021/03/19 11:10:16;;;;;;;5.07;1.92;;;7.70;73.30;;;;;;4985974;28;20046;-85
2021/03/19 11:13:08;;;;;;;3.80;2.20;;;7.70;71.80;;;;;;4991316;28;20118;-89
2021/03/19 11:15:33;;;;;;;5.38;2.33;;;7.70;73.60;;;;;;4995090;28;20058;-84
2021/03/19 11:18:17;;;;;;;4.95;2.03;;;7.80;74.50;;;;;;4979180;28;20042;-88
2021/03/19 11:20:51;;;;;;;3.80;1.98;;;7.90;71.20;;;;;;5001906;28;20092;-87
2021/03/19 11:23:18;;;;;;;2.90;1.92;;;7.90;72.00;;;;;;4988330;28;20502;-89
2021/03/19 11:26:26;;;;;;;5.03;2.50;;;7.90;72.60;;;;;;4975071;28;20044;-84
2021/03/19 11:29:18;;;;;;;4.45;2.05;;;8.00;72.30;;;;;;4988346;28;20041;-83
2021/03/19 11:31:53;;;;;;;3.13;2.50;;;8.00;72.90;;;;;;4980533;28;20262;-82
2021/03/19 11:34:45;;;;;;;4.03;2.13;;;7.90;73.40;;;;;;4976822;28;20393;-85
2021/03/19 11:37:27;;;;;;;3.72;1.52;;;7.70;72.60;;;;;;4990882;28;20124;-87
2021/03/19 11:40:31;;;;;;;16.37;2.80;;;7.60;71.80;;;;;;4981828;28;20046;-86
2021/03/19 11:43:02;;;;;;;5.05;1.50;;;7.60;72.90;;;;;;4995359;28;20140;-86
2021/03/19 11:45:34;;;;;;;6.38;1.70;;;8.00;71.70;;;;;;4987778;28;20493;-85
2021/03/19 11:48:00;;;;;;;4.93;2.10;;;8.20;70.40;;;;;;4974926;28;20046;-85
2021/03/19 11:50:33;;;;;;;2.83;1.95;;;8.30;70.70;;;;;;4992440;28;20568;-86
2021/03/19 11:53:09;;;;;;;8.77;1.75;;;8.20;70.60;;;;;;4997605;28;20037;-84
2021/03/19 11:55:43;;;;;;;1.88;1.30;;;8.00;70.70;;;;;;4991479;28;20035;-85
2021/03/19 11:58:12;;;;;;;3.05;1.52;;;8.10;68.60;;;;;;5006321;28;20030;-85
2021/03/19 12:00:39;;;;;;;2.40;1.60;;;8.30;68.30;;;;;;4976088;28;20038;-85
2021/03/19 12:03:34;;;;;;;4.55;1.50;;;8.50;68.70;;;;;;4975969;28;20055;-84
2021/03/19 12:06:25;;;;;;;11.95;2.25;;;8.60;66.70;;;;;;4984847;28;20073;-84
2021/03/19 12:08:51;;;;;;;2.22;1.45;;;8.60;69.30;;;;;;4990296;28;20069;-83
2021/03/19 12:11:36;;;;;;;3.78;2.15;;;8.70;69.10;;;;;;4998731;28;20193;-86
2021/03/19 12:14:04;;;;;;;2.55;1.27;;;8.90;69.60;;;;;;5007431;28;20066;-88
2021/03/19 12:16:31;;;;;;;2.67;1.30;;;9.00;69.90;;;;;;4996842;28;20035;-90
2021/03/19 12:18:57;;;;;;;2.13;1.40;;;9.00;70.50;;;;;;4997158;28;20168;-84
2021/03/19 12:21:24;;;;;;;4.60;1.20;;;8.90;70.90;;;;;;5001089;28;20045;-86
2021/03/19 12:23:50;;;;;;;2.10;1.10;;;8.90;71.30;;;;;;4968347;28;20090;-84
2021/03/19 12:26:16;;;;;;;1.90;0.60;;;9.10;71.10;;;;;;4973121;28;20058;-82
2021/03/19 12:28:42;;;;;;;2.00;0.93;;;9.30;69.00;;;;;;4983129;28;20097;-84
2021/03/19 12:31:08;;;;;;;1.65;0.85;;;9.30;68.70;;;;;;4969615;28;20039;-86
2021/03/19 12:33:36;;;;;;;2.25;1.20;;;9.40;68.30;;;;;;4990071;28;20031;-85
2021/03/19 12:36:22;;;;;;;2.50;1.00;;;9.60;67.60;;;;;;4973762;28;20046;-85
2021/03/19 12:38:48;;;;;;;3.13;1.23;;;9.70;67.80;;;;;;4986541;28;20056;-84
2021/03/19 12:41:15;;;;;;;2.92;1.25;;;9.80;68.70;;;;;;4989577;28;20038;-84
2021/03/19 12:43:41;;;;;;;2.63;1.08;;;9.90;68.50;;;;;;4980975;28;20106;-83
2021/03/19 12:46:07;;;;;;;2.42;1.15;;;10.10;67.50;;;;;;4980134;28;20384;-85
2021/03/19 12:48:53;;;;;;;4.00;1.13;;;10.10;66.30;;;;;;4966277;28;20044;-86
2021/03/19 12:51:38;;;;;;;2.88;0.90;;;10.00;66.20;;;;;;4984669;28;20046;-83
2021/03/19 12:54:05;;;;;;;1.63;0.65;;;9.90;63.60;;;;;;4982444;28;20121;-84
2021/03/19 12:56:31;;;;;;;2.85;0.60;;;9.90;64.10;;;;;;4957837;28;20049;-84
2021/03/19 12:58:57;;;;;;;0.73;0.40;;;10.10;64.60;;;;;;4979559;28;20577;-84
2021/03/19 13:01:23;;;;;;;1.30;0.50;;;10.10;62.60;;;;;;4990591;28;20069;-86
2021/03/19 13:03:50;;;;;;;1.23;0.40;;;9.90;62.90;;;;;;5001038;28;20068;-83
2021/03/19 13:06:36;;;;;;;2.10;0.50;;;9.70;62.90;;;;;;4957354;28;20038;-84
2021/03/19 13:09:03;;;;;;;1.08;0.65;;;9.50;60.70;;;;;;4974753;28;20031;-85
2021/03/19 13:11:29;;;;;;;2.05;0.70;;;9.30;61.90;;;;;;4986025;28;20058;-86
2021/03/19 13:13:55;;;;;;;1.15;0.60;;;9.40;63.00;;;;;;4968749;28;20058;-83
2021/03/19 13:16:21;;;;;;;2.13;0.70;;;9.30;62.60;;;;;;4975683;28;20101;-85
2021/03/19 13:18:48;;;;;;;1.63;0.90;;;9.40;62.40;;;;;;4979080;28;20500;-86
2021/03/19 13:21:35;;;;;;;3.20;1.42;;;9.40;61.30;;;;;;4964688;28;20072;-83
2021/03/19 13:24:22;;;;;;;4.22;1.92;;;9.40;60.80;;;;;;4957950;28;20054;-87
2021/03/19 13:26:48;;;;;;;3.45;1.38;;;9.40;62.20;;;;;;4980363;28;20039;-84
2021/03/19 13:29:34;;;;;;;0.40;0.30;;;9.80;62.10;;;;;;4967993;28;20042;-88
2021/03/19 13:32:00;;;;;;;1.77;0.50;;;10.30;60.30;;;;;;4954939;28;20030;-87
2021/03/19 13:34:26;;;;;;;0.68;0.40;;;10.50;58.80;;;;;;4965174;28;20046;-86
2021/03/19 13:36:52;;;;;;;0.85;0.47;;;10.40;59.20;;;;;;4970725;28;20400;-86
2021/03/19 13:39:18;;;;;;;2.42;0.60;;;10.80;60.20;;;;;;4968466;28;20031;-86
2021/03/19 13:41:45;;;;;;;1.77;0.55;;;11.50;59.10;;;;;;4953708;28;20133;-89
2021/03/19 13:44:11;;;;;;;1.70;0.50;;;11.80;58.80;;;;;;4966528;28;20031;-85